createdAt,value
2023-05-01T00:02:07.614Z,13.6
2023-05-01T00:04:37.987Z,13.6
2023-05-01T00:07:08.946Z,13.6
2023-05-01T00:09:39.571Z,13.5
2023-05-01T00:12:10.406Z,13.4
2023-05-01T00:14:41.341Z,13.4
2023-05-01T00:17:12.259Z,13.4
2023-05-01T00:19:43.188Z,13.2
2023-05-01T00:22:27.622Z,13.2
2023-05-01T00:24:58.839Z,13.1
2023-05-01T00:27:29.528Z,13.1
2023-05-01T00:30:00.493Z,13.1
2023-05-01T00:32:32.060Z,13.2
2023-05-01T00:35:07.587Z,13.2
2023-05-01T00:37:38.325Z,13.2
2023-05-01T00:40:18.751Z,13.2
2023-05-01T00:42:47.944Z,13.2
2023-05-01T00:45:18.502Z,13.3
2023-05-01T00:47:49.074Z,13.2
2023-05-01T00:50:19.822Z,13.1
2023-05-01T00:53:00.751Z,13.2
2023-05-01T00:55:36.557Z,13.1
2023-05-01T00:58:07.145Z,13.1
2023-05-01T01:00:37.667Z,13
2023-05-01T01:03:08.793Z,13
2023-05-01T01:05:39.460Z,12.9
2023-05-01T01:08:15.804Z,12.8
2023-05-01T01:10:46.385Z,12.9
2023-05-01T01:13:25.950Z,12.9
2023-05-01T01:15:56.714Z,12.8
2023-05-01T01:21:11.102Z,12.6
2023-05-01T01:23:42.252Z,12.7
2023-05-01T01:26:13.060Z,12.7
2023-05-01T01:28:43.496Z,12.7
2023-05-01T01:31:14.263Z,12.6
2023-05-01T01:33:45.756Z,12.7
2023-05-01T01:36:16.937Z,12.6
2023-05-01T01:38:48.544Z,12.7
2023-05-01T01:41:19.632Z,12.6
2023-05-01T01:43:50.830Z,12.6
2023-05-01T01:46:21.632Z,12.6
2023-05-01T01:48:52.490Z,12.6
2023-05-01T01:51:23.488Z,12.5
2023-05-01T01:54:00.389Z,12.4
2023-05-01T01:56:31.635Z,12.5
2023-05-01T01:59:02.703Z,12.4
2023-05-01T02:01:33.493Z,12.4
2023-05-01T02:04:03.573Z,12.3
2023-05-01T02:06:34.155Z,12.4
2023-05-01T02:09:05.929Z,12.4
2023-05-01T02:11:34.900Z,12.3
2023-05-01T02:14:10.001Z,12.3
2023-05-01T02:16:42.291Z,12.1
2023-05-01T02:19:19.893Z,12.1
2023-05-01T02:21:49.544Z,12.2
2023-05-01T02:24:20.532Z,12.2
2023-05-01T02:26:51.155Z,12.1
2023-05-01T02:29:21.666Z,12.1
2023-05-01T02:31:53.808Z,12.1
2023-05-01T02:34:24.323Z,12
2023-05-01T02:36:54.877Z,11.9
2023-05-01T02:39:25.454Z,12
2023-05-01T02:41:55.978Z,11.9
2023-05-01T02:44:25.965Z,11.9
2023-05-01T02:46:54.467Z,11.9
2023-05-01T02:49:25.000Z,11.9
2023-05-01T02:51:56.194Z,11.9
2023-05-01T02:54:26.826Z,11.8
2023-05-01T02:56:59.458Z,11.7
2023-05-01T02:59:29.887Z,11.8
2023-05-01T03:02:00.417Z,11.8
2023-05-01T03:04:30.811Z,11.8
2023-05-01T03:07:02.100Z,11.8
2023-05-01T03:09:33.673Z,11.7
2023-05-01T03:12:06.224Z,11.8
2023-05-01T03:14:37.009Z,11.8
2023-05-01T03:17:07.168Z,11.7
2023-05-01T03:24:42.562Z,11.8
2023-05-01T03:29:53.968Z,11.7
2023-05-01T03:32:29.196Z,11.8
2023-05-01T03:34:59.447Z,11.8
2023-05-01T03:37:29.843Z,11.7
2023-05-01T03:40:20.148Z,11.7
2023-05-01T03:48:31.634Z,11.7
2023-05-01T03:53:44.172Z,11.7
2023-05-01T03:56:18.889Z,11.7
2023-05-01T03:58:48.096Z,11.7
2023-05-01T04:01:22.439Z,11.7
2023-05-01T04:03:54.501Z,11.7
2023-05-01T04:06:23.905Z,11.7
2023-05-01T04:08:59.508Z,11.7
2023-05-01T04:11:29.099Z,11.8
2023-05-01T04:14:02.282Z,11.8
2023-05-01T04:16:54.108Z,11.8
2023-05-01T04:19:27.948Z,11.9
2023-05-01T04:21:57.919Z,12
2023-05-01T04:24:33.544Z,12
2023-05-01T04:27:06.160Z,12
2023-05-01T04:29:36.010Z,12
2023-05-01T04:32:06.861Z,12.1
2023-05-01T04:34:36.120Z,12.1
2023-05-01T04:37:06.955Z,12.1
2023-05-01T04:39:37.774Z,12.2
2023-05-01T04:42:08.688Z,12.2
2023-05-01T04:44:41.598Z,12.2
2023-05-01T04:47:12.734Z,12.4
2023-05-01T04:49:43.421Z,12.5
2023-05-01T04:52:16.503Z,12.3
2023-05-01T04:54:47.558Z,12.6
2023-05-01T04:57:18.071Z,12.6
2023-05-01T04:59:47.786Z,12.7
2023-05-01T05:02:18.691Z,12.7
2023-05-01T05:04:48.999Z,12.9
2023-05-01T05:07:19.759Z,12.9
2023-05-01T05:09:50.133Z,12.9
2023-05-01T05:12:21.330Z,13.1
2023-05-01T05:14:52.593Z,13
2023-05-01T05:17:23.214Z,13.2
2023-05-01T05:19:55.387Z,13.4
2023-05-01T05:22:29.357Z,13.5
2023-05-01T05:25:03.653Z,13.6
2023-05-01T05:27:34.296Z,13.6
2023-05-01T05:30:05.302Z,13.8
2023-05-01T05:32:36.300Z,13.9
2023-05-01T05:35:07.299Z,14
2023-05-01T05:37:38.762Z,14
2023-05-01T05:40:09.949Z,14.1
2023-05-01T05:42:42.378Z,14.2
2023-05-01T05:45:16.073Z,13.9
2023-05-01T05:47:46.486Z,14.3
2023-05-01T05:50:16.997Z,14.4
2023-05-01T05:52:47.945Z,14.2
2023-05-01T05:58:00.923Z,14.7
2023-05-01T06:00:31.987Z,14.8
2023-05-01T06:03:03.204Z,15
2023-05-01T06:05:34.153Z,15
2023-05-01T06:08:04.565Z,15.1
2023-05-01T06:10:35.373Z,15.2
2023-05-01T06:13:13.816Z,15.3
2023-05-01T06:15:37.617Z,15.4
2023-05-01T06:18:08.906Z,15.6
2023-05-01T06:20:38.377Z,15.6
2023-05-01T06:23:09.310Z,15.8
2023-05-01T06:25:40.321Z,15.9
2023-05-01T06:28:11.769Z,16
2023-05-01T06:30:45.057Z,16.1
2023-05-01T06:33:21.862Z,16.2
2023-05-01T06:35:53.127Z,16.2
2023-05-01T06:38:25.010Z,16.5
2023-05-01T06:41:00.967Z,16.7
2023-05-01T06:43:43.171Z,16.8
2023-05-01T06:46:16.878Z,16.9
2023-05-01T06:49:02.537Z,17.1
2023-05-01T06:51:46.140Z,17.2
2023-05-01T06:54:18.904Z,17.4
2023-05-01T06:59:50.026Z,17.7
2023-05-01T07:02:21.339Z,17.8
2023-05-01T07:07:33.532Z,17.8
2023-05-01T07:10:09.421Z,18
2023-05-01T07:12:40.516Z,18.2
2023-05-01T07:15:20.137Z,18.2
2023-05-01T07:18:00.632Z,18.3
2023-05-01T07:20:43.099Z,18.3
2023-05-01T07:26:00.714Z,18.2
2023-05-01T07:28:37.406Z,18.2
2023-05-01T07:31:11.739Z,18.4
2023-05-01T07:36:29.862Z,18.6
2023-05-01T07:39:06.316Z,18.7
2023-05-01T07:41:43.823Z,18.7
2023-05-01T07:44:15.281Z,18.9
2023-05-01T07:46:46.242Z,18.8
2023-05-01T07:49:16.326Z,18.9
2023-05-01T07:51:47.735Z,19
2023-05-01T07:54:18.772Z,19.1
2023-05-01T07:56:49.653Z,19.2
2023-05-01T07:59:19.807Z,19.3
2023-05-01T08:01:50.651Z,19.4
2023-05-01T08:04:21.543Z,19.5
2023-05-01T08:06:58.492Z,19.5
2023-05-01T08:09:30.375Z,19.7
2023-05-01T08:12:01.501Z,19.7
2023-05-01T08:14:30.661Z,19.8
2023-05-01T08:17:00.915Z,19.8
2023-05-01T08:19:40.154Z,19.9
2023-05-01T08:22:11.281Z,19.9
2023-05-01T08:24:45.086Z,19.8
2023-05-01T08:27:21.616Z,20
2023-05-01T08:29:52.954Z,20.1
2023-05-01T08:32:24.185Z,20.2
2023-05-01T08:34:55.335Z,20.2
2023-05-01T08:40:04.142Z,20.4
2023-05-01T08:42:39.655Z,20.4
2023-05-01T08:45:15.973Z,20.6
2023-05-01T08:47:50.181Z,20.6
2023-05-01T08:50:24.015Z,20.6
2023-05-01T08:52:55.160Z,20.6
2023-05-01T08:55:26.466Z,20.8
2023-05-01T08:57:57.032Z,20.7
2023-05-01T09:03:14.735Z,20.9
2023-05-01T09:05:45.735Z,20.9
2023-05-01T09:08:16.460Z,21
2023-05-01T09:10:52.689Z,21.1
2023-05-01T09:13:23.213Z,21
2023-05-01T09:15:55.015Z,21.2
2023-05-01T09:18:28.296Z,21.3
2023-05-01T09:20:59.790Z,21.3
2023-05-01T09:23:31.030Z,21.2
2023-05-01T09:29:11.090Z,21.5
2023-05-01T09:31:49.900Z,21.8
2023-05-01T09:34:20.706Z,21.9
2023-05-01T09:36:51.275Z,21.9
2023-05-01T09:39:30.401Z,21.9
2023-05-01T09:42:11.887Z,22
2023-05-01T09:52:50.850Z,22.3
2023-05-01T09:55:39.162Z,22.2
2023-05-01T09:58:21.715Z,22.4
2023-05-01T10:03:41.577Z,22.5
2023-05-01T10:06:27.260Z,22.6
2023-05-01T10:08:58.151Z,22.6
2023-05-01T10:14:03.464Z,22.6
2023-05-01T10:16:36.859Z,22.5
2023-05-01T10:24:32.168Z,22.2
2023-05-01T10:27:03.047Z,22
2023-05-01T10:29:33.170Z,22.1
2023-05-01T10:32:03.235Z,22.1
2023-05-01T10:34:33.610Z,22
2023-05-01T10:37:08.610Z,22
2023-05-01T10:39:38.668Z,21.9
2023-05-01T10:42:17.586Z,21.9
2023-05-01T10:44:46.765Z,22
2023-05-01T10:47:21.715Z,22
2023-05-01T10:49:54.163Z,22.3
2023-05-01T10:52:25.974Z,22.4
2023-05-01T10:54:57.238Z,22.6
2023-05-01T10:57:36.663Z,22.6
2023-05-01T11:00:11.145Z,22.5
2023-05-01T11:02:41.737Z,22.6
2023-05-01T11:05:12.847Z,22.8
2023-05-01T11:07:43.931Z,22.8
2023-05-01T11:10:16.220Z,22.8
2023-05-01T11:12:47.061Z,22.7
2023-05-01T11:15:18.941Z,22.6
2023-05-01T11:17:52.966Z,22.5
2023-05-01T11:20:24.093Z,22.5
2023-05-01T11:22:54.700Z,22.5
2023-05-01T11:25:25.672Z,22.6
2023-05-01T11:27:56.817Z,22.8
2023-05-01T11:30:32.747Z,22.7
2023-05-01T11:33:03.838Z,22.8
2023-05-01T11:38:06.572Z,23.1
2023-05-01T11:40:35.667Z,23.1
2023-05-01T11:43:06.519Z,23.2
2023-05-01T11:45:38.167Z,23.2
2023-05-01T11:48:09.215Z,23.4
2023-05-01T11:50:39.898Z,23.4
2023-05-01T11:53:11.062Z,23.5
2023-05-01T11:55:42.755Z,23.5
2023-05-01T11:58:13.606Z,23.7
2023-05-01T12:00:44.068Z,23.7
2023-05-01T12:03:15.742Z,23.8
2023-05-01T12:06:00.323Z,24
2023-05-01T12:08:30.744Z,23.9
2023-05-01T12:10:59.396Z,23.8
2023-05-01T12:13:29.807Z,24
2023-05-01T12:16:00.316Z,24.1
2023-05-01T12:18:31.094Z,24.2
2023-05-01T12:21:01.970Z,24.3
2023-05-01T12:23:35.885Z,24.3
2023-05-01T12:26:06.847Z,24.5
2023-05-01T12:28:38.099Z,24.4
2023-05-01T12:31:10.282Z,24.5
2023-05-01T12:33:44.171Z,24.6
2023-05-01T12:36:14.502Z,24.5
2023-05-01T12:38:45.234Z,24.7
2023-05-01T12:41:16.121Z,24.7
2023-05-01T12:43:47.305Z,24.7
2023-05-01T12:48:54.313Z,24.5
2023-05-01T12:51:23.232Z,24.5
2023-05-01T12:53:55.760Z,24.5
2023-05-01T12:56:25.944Z,24.6
2023-05-01T12:58:57.630Z,25
2023-05-01T13:01:31.751Z,25.2
2023-05-01T13:04:02.623Z,25.4
2023-05-01T13:06:33.413Z,25.5
2023-05-01T13:09:04.419Z,25.4
2023-05-01T13:11:34.881Z,25.1
2023-05-01T13:14:05.725Z,24.9
2023-05-01T13:16:36.232Z,24.8
2023-05-01T13:19:07.000Z,24.8
2023-05-01T13:21:37.980Z,24.8
2023-05-01T13:24:08.839Z,24.5
2023-05-01T13:26:39.462Z,24.8
2023-05-01T13:29:10.498Z,24.8
2023-05-01T13:34:12.522Z,25.2
2023-05-01T13:36:48.731Z,25.3
2023-05-01T13:39:24.381Z,25.3
2023-05-01T13:44:34.021Z,25.4
2023-05-01T13:47:10.731Z,25.2
2023-05-01T13:49:52.245Z,25.3
2023-05-01T13:52:29.343Z,25
2023-05-01T13:55:05.604Z,24.7
2023-05-01T13:57:40.340Z,24.7
2023-05-01T14:05:27.167Z,24.7
2023-05-01T14:08:02.423Z,24.7
2023-05-01T14:10:41.759Z,24.6
2023-05-01T14:13:11.262Z,24.8
2023-05-01T14:15:41.994Z,24.3
2023-05-01T14:18:11.578Z,24.4
2023-05-01T14:20:53.921Z,24.3
2023-05-01T14:23:38.654Z,24.5
2023-05-01T14:26:07.976Z,24.4
2023-05-01T14:28:38.186Z,24.4
2023-05-01T14:31:07.817Z,24.6
2023-05-01T14:33:38.375Z,24.3
2023-05-01T14:36:11.748Z,24.4
2023-05-01T14:38:41.991Z,24.4
2023-05-01T14:41:13.182Z,24.1
2023-05-01T14:43:44.008Z,24.1
2023-05-01T14:46:23.159Z,24
2023-05-01T14:48:56.885Z,24
2023-05-01T14:51:27.895Z,23.7
2023-05-01T14:53:57.427Z,23.7
2023-05-01T14:56:27.953Z,23.9
2023-05-01T14:58:58.967Z,23.8
2023-05-01T15:01:32.944Z,23.9
2023-05-01T15:04:08.866Z,23.8
2023-05-01T15:06:42.638Z,23.8
2023-05-01T15:09:18.065Z,23.7
2023-05-01T15:11:49.045Z,23.7
2023-05-01T15:14:28.338Z,23.6
2023-05-01T15:17:06.666Z,23.7
2023-05-01T15:19:37.142Z,23.7
2023-05-01T15:22:07.831Z,23.8
2023-05-01T15:24:42.631Z,23.7
2023-05-01T15:27:13.938Z,23.7
2023-05-01T15:29:49.392Z,23.7
2023-05-01T15:32:21.490Z,23.4
2023-05-01T15:34:55.610Z,23.5
2023-05-01T15:40:01.148Z,23.3
2023-05-01T15:42:32.387Z,23.3
2023-05-01T15:47:56.417Z,23.2
2023-05-01T15:50:37.245Z,23.4
2023-05-01T15:53:22.317Z,23.5
2023-05-01T15:56:00.108Z,23.4
2023-05-01T15:58:35.551Z,23.1
2023-05-01T16:03:56.181Z,23.2
2023-05-01T16:06:32.057Z,23.2
2023-05-01T16:11:56.212Z,23.2
2023-05-01T16:14:27.060Z,23.1
2023-05-01T16:16:57.755Z,23
2023-05-01T16:19:29.072Z,23
2023-05-01T16:22:00.213Z,23
2023-05-01T16:27:08.337Z,22.9
2023-05-01T16:29:40.565Z,22.9
2023-05-01T16:32:10.727Z,22.9
2023-05-01T16:34:40.093Z,22.9
2023-05-01T16:37:10.530Z,22.8
2023-05-01T16:39:41.393Z,22.8
2023-05-01T16:42:12.110Z,22.8
2023-05-01T16:44:48.330Z,22.8
2023-05-01T16:47:24.545Z,22.8
2023-05-01T16:49:55.800Z,22.8
2023-05-01T16:52:26.676Z,22.8
2023-05-01T16:54:57.646Z,22.8
2023-05-01T16:57:31.645Z,22.8
2023-05-01T17:00:05.345Z,22.8
2023-05-01T17:02:41.632Z,22.8
2023-05-01T17:05:18.526Z,22.8
2023-05-01T17:10:30.600Z,22.6
2023-05-01T17:13:01.492Z,22.7
2023-05-01T17:15:32.299Z,22.6
2023-05-01T17:18:03.535Z,22.4
2023-05-01T17:20:34.892Z,22.5
2023-05-01T17:23:12.568Z,22.4
2023-05-01T17:25:45.013Z,22.4
2023-05-01T17:28:17.019Z,22.4
2023-05-01T17:30:48.502Z,22.3
2023-05-01T17:33:19.253Z,22.2
2023-05-01T17:35:50.940Z,22.3
2023-05-01T17:38:21.623Z,22.2
2023-05-01T17:40:52.245Z,22.1
2023-05-01T17:43:23.297Z,22
2023-05-01T17:45:52.564Z,22.1
2023-05-01T17:48:23.600Z,22.1
2023-05-01T17:50:59.285Z,22
2023-05-01T17:53:30.396Z,22
2023-05-01T17:56:02.257Z,22
2023-05-01T17:58:38.343Z,21.9
2023-05-01T18:01:09.476Z,21.9
2023-05-01T18:03:46.660Z,21.8
2023-05-01T18:06:17.208Z,21.8
2023-05-01T18:08:46.937Z,21.8
2023-05-01T18:11:20.544Z,21.6
2023-05-01T18:13:50.319Z,21.7
2023-05-01T18:16:24.713Z,21.5
2023-05-01T18:19:05.439Z,21.6
2023-05-01T18:24:18.765Z,21.5
2023-05-01T18:26:49.573Z,21.5
2023-05-01T18:29:25.355Z,21.5
2023-05-01T18:34:41.334Z,21.1
2023-05-01T18:37:11.804Z,21.1
2023-05-01T18:39:44.195Z,21.1
2023-05-01T18:42:14.699Z,21.2
2023-05-01T18:44:45.515Z,21
2023-05-01T18:47:21.621Z,21
2023-05-01T18:49:57.643Z,20.9
2023-05-01T18:52:29.218Z,20.9
2023-05-01T18:55:05.221Z,20.8
2023-05-01T18:57:34.513Z,20.6
2023-05-01T19:00:05.296Z,20.7
2023-05-01T19:02:36.195Z,20.7
2023-05-01T19:05:07.996Z,20.9
2023-05-01T19:07:38.563Z,20.6
2023-05-01T19:10:09.312Z,20.6
2023-05-01T19:12:40.894Z,20.6
2023-05-01T19:15:17.049Z,20.6
2023-05-01T19:17:50.989Z,20.6
2023-05-01T19:20:22.532Z,20.6
2023-05-01T19:22:59.124Z,20.5
2023-05-01T19:25:33.545Z,20.4
2023-05-01T19:28:08.916Z,20.4
2023-05-01T19:30:47.165Z,20.5
2023-05-01T19:33:15.766Z,20.3
2023-05-01T19:35:48.522Z,20.3
2023-05-01T19:38:17.898Z,20.3
2023-05-01T19:40:46.319Z,20.2
2023-05-01T19:43:18.648Z,20.2
2023-05-01T19:45:49.491Z,20.2
2023-05-01T19:48:20.790Z,20.2
2023-05-01T19:50:58.304Z,20
2023-05-01T19:53:30.187Z,20.2
2023-05-01T19:56:02.371Z,20.2
2023-05-01T19:58:34.006Z,20.1
2023-05-01T20:01:06.212Z,20.1
2023-05-01T20:03:37.052Z,19.9
2023-05-01T20:06:07.741Z,20
2023-05-01T20:08:36.948Z,19.6
2023-05-01T20:11:07.122Z,19.8
2023-05-01T20:13:37.935Z,19.8
2023-05-01T20:16:10.614Z,19.8
2023-05-01T20:18:41.283Z,19.8
2023-05-01T20:21:12.188Z,19.6
2023-05-01T20:23:42.775Z,19.7
2023-05-01T20:26:13.622Z,19.6
2023-05-01T20:28:44.249Z,19.5
2023-05-01T20:31:15.302Z,19.6
2023-05-01T20:33:45.838Z,19.5
2023-05-01T20:36:16.465Z,19.5
2023-05-01T20:38:53.616Z,19.6
2023-05-01T20:41:25.332Z,19.5
2023-05-01T20:44:09.417Z,19.5
2023-05-01T20:46:40.438Z,19.3
2023-05-01T20:49:15.156Z,19.4
2023-05-01T20:51:43.625Z,19.5
2023-05-01T20:54:19.650Z,19.3
2023-05-01T20:56:50.281Z,19.3
2023-05-01T20:59:18.906Z,19.4
2023-05-01T21:01:49.843Z,19.2
2023-05-01T21:04:20.925Z,19.3
2023-05-01T21:06:52.141Z,19.3
2023-05-01T21:09:22.693Z,19.2
2023-05-01T21:11:53.747Z,19.3
2023-05-01T21:14:24.200Z,19.2
2023-05-01T21:16:55.169Z,19.2
2023-05-01T21:19:26.696Z,19.1
2023-05-01T21:21:57.286Z,18.9
2023-05-01T21:24:28.645Z,19
2023-05-01T21:26:59.600Z,19
2023-05-01T21:29:30.627Z,19.2
2023-05-01T21:34:43.824Z,19.1
2023-05-01T21:40:02.746Z,19.2
2023-05-01T21:42:32.722Z,19.2
2023-05-01T21:45:16.632Z,19
2023-05-01T21:47:52.445Z,19.1
2023-05-01T21:50:29.665Z,19
2023-05-01T21:53:00.657Z,18.9
2023-05-01T21:55:38.923Z,18.9
2023-05-01T21:58:12.304Z,19
2023-05-01T22:06:04.316Z,19
2023-05-01T22:08:36.273Z,18.9
2023-05-01T22:11:08.422Z,18.9
2023-05-01T22:13:37.953Z,18.8
2023-05-01T22:16:09.675Z,18.9
2023-05-01T22:18:40.616Z,18.8
2023-05-01T22:21:11.356Z,18.7
2023-05-01T22:23:42.404Z,18.6
2023-05-01T22:26:14.184Z,18.7
2023-05-01T22:28:44.943Z,18.8
2023-05-01T22:31:15.892Z,18.6
2023-05-01T22:33:47.254Z,18.5
2023-05-01T22:36:19.859Z,18.6
2023-05-01T22:38:51.045Z,18.6
2023-05-01T22:41:21.848Z,18.6
2023-05-01T22:43:53.190Z,18.6
2023-05-01T22:46:23.751Z,18.6
2023-05-01T22:48:54.578Z,18.5
2023-05-01T22:51:25.633Z,18.6
2023-05-01T22:53:56.462Z,18.6
2023-05-01T22:56:27.952Z,18.7
2023-05-01T22:58:58.997Z,18.5
2023-05-01T23:01:29.895Z,18.6
2023-05-01T23:04:01.394Z,18.6
2023-05-01T23:06:32.247Z,18.6
2023-05-01T23:09:03.585Z,18.6
2023-05-01T23:11:41.086Z,18.6
2023-05-01T23:14:11.915Z,18.6
2023-05-01T23:16:47.683Z,18.7
2023-05-01T23:19:19.677Z,18.6
2023-05-01T23:21:50.613Z,18.8
2023-05-01T23:24:21.447Z,18.9
2023-05-01T23:26:52.002Z,18.7
2023-05-01T23:29:23.368Z,18.7
2023-05-01T23:31:58.473Z,18.7
2023-05-01T23:34:29.661Z,18.7
2023-05-01T23:37:00.366Z,18.5
2023-05-01T23:39:34.616Z,18.7
2023-05-01T23:42:16.002Z,18.6
2023-05-01T23:44:53.927Z,18.7
2023-05-01T23:50:00.713Z,18.6
2023-05-01T23:52:30.827Z,18.6
2023-05-01T23:55:01.211Z,18.5
2023-05-01T23:57:32.884Z,18.3
